Cervantes, Argentina
Current Conditions -  °F | °C
As of 8:00 AM on Sunday 23 Nov 2014 (Local Time) from SAZN Reporting Station
Clear Clear  
Wind Chill: 59°   Ceiling: Unl
Heat Index: 59°   Visibility: 6mi
Dew Point: 37°   Wind: 6mph
Humidity: 45%   Direction: 270°W
Pressure: 29.77"   Gusts: NA
Location:  39.06°S, 67.34°W
Report Text: SAZN 231100Z 27005KT CAVOK 15/03 Q1008
Loading
Personal Weather Stations






























Interactive Weather Map New forecast layout! Learn more

10-Day Weather Forecast

Advertisements
Track Severe Weather on mobile